Atlanta, Georgia
Current Conditions -  °F | °C
As of 12:52 AM on Friday 19 Dec 2014 (Local Time) from KATL Reporting Station
Broken Clouds Broken Clouds  
Wind Chill:   Ceiling: 25000
Heat Index:   Visibility: 10mi
Dew Point:   Wind: 9mph
Humidity: 73%   Direction: 320°NW
Pressure: 30.13"   Gusts: NA
Location:  33.75°N, 84.39°W
Report Text: KATL 190552Z 32008KT 10SM BKN250 05/01 A3013 RMK AO2 SLP208 T00500006 10094 20050 58004
Loading
Personal Weather Stations






























Interactive Weather Map New forecast layout! Learn more

10-Day Weather Forecast

Advertisements
Track Severe Weather on mobile